createdAt,value
2022-11-23T00:00:15.168Z,0.00
2022-11-23T00:01:15.182Z,0.00
2022-11-23T00:02:15.179Z,0.00
2022-11-23T00:03:15.158Z,0.00
2022-11-23T00:04:15.325Z,0.00
2022-11-23T00:05:15.777Z,0.00
2022-11-23T00:06:15.140Z,0.00
2022-11-23T00:07:15.168Z,0.00
2022-11-23T00:08:15.092Z,0.00
2022-11-23T00:09:15.076Z,0.00
2022-11-23T00:10:15.082Z,0.00
2022-11-23T00:11:15.069Z,0.00
2022-11-23T00:12:15.050Z,0.00
2022-11-23T00:13:15.031Z,0.00
2022-11-23T00:14:15.023Z,0.00
2022-11-23T00:15:15.024Z,0.00
2022-11-23T00:16:15.022Z,0.00
2022-11-23T00:17:14.973Z,0.00
2022-11-23T00:18:14.989Z,0.00
2022-11-23T00:19:14.969Z,0.00
2022-11-23T00:20:14.991Z,0.00
2022-11-23T00:21:14.935Z,0.00
2022-11-23T00:22:14.981Z,0.00
2022-11-23T00:23:14.907Z,0.00
2022-11-23T00:24:14.912Z,0.00
2022-11-23T00:25:14.987Z,0.00
2022-11-23T00:26:14.874Z,0.00
2022-11-23T00:27:14.856Z,0.00
2022-11-23T00:28:14.858Z,0.00
2022-11-23T00:29:14.859Z,0.00
2022-11-23T00:30:14.847Z,0.00
2022-11-23T00:31:14.848Z,0.00
2022-11-23T00:32:14.829Z,0.00
2022-11-23T00:33:14.820Z,0.00
2022-11-23T00:34:14.815Z,0.00
2022-11-23T00:35:14.792Z,0.00
2022-11-23T00:36:14.778Z,0.00
2022-11-23T00:37:14.758Z,0.00
2022-11-23T00:38:14.764Z,0.00
2022-11-23T00:39:14.746Z,0.00
2022-11-23T00:40:14.730Z,0.00
2022-11-23T00:41:14.727Z,0.00
2022-11-23T00:42:14.693Z,0.00
2022-11-23T00:43:14.695Z,0.00
2022-11-23T00:44:14.714Z,0.00
2022-11-23T00:45:14.670Z,0.00
2022-11-23T00:46:14.664Z,0.00
2022-11-23T00:47:14.633Z,0.00
2022-11-23T00:48:14.638Z,0.00
2022-11-23T00:49:14.617Z,0.00
2022-11-23T00:50:14.610Z,0.00
2022-11-23T00:51:14.606Z,0.00
2022-11-23T00:52:14.592Z,0.00
2022-11-23T00:53:14.634Z,0.00
2022-11-23T00:54:14.572Z,0.00
2022-11-23T00:55:14.554Z,0.00
2022-11-23T00:56:14.545Z,0.00
2022-11-23T00:57:14.529Z,0.00
2022-11-23T00:58:14.530Z,0.00
2022-11-23T00:59:14.525Z,0.00
2022-11-23T01:00:14.507Z,0.00
2022-11-23T01:01:14.574Z,0.00
2022-11-23T01:02:14.500Z,0.00
2022-11-23T01:03:14.476Z,0.00
2022-11-23T01:04:14.458Z,0.00
2022-11-23T01:05:14.470Z,0.00
2022-11-23T01:06:14.431Z,0.00
2022-11-23T01:07:14.526Z,0.00
2022-11-23T01:08:14.406Z,0.00
2022-11-23T01:09:14.457Z,0.00
2022-11-23T01:10:14.418Z,0.00
2022-11-23T01:11:14.370Z,0.00
2022-11-23T01:12:14.381Z,0.00
2022-11-23T01:13:14.347Z,0.00
2022-11-23T01:14:14.364Z,0.00
2022-11-23T01:15:14.339Z,0.00
2022-11-23T01:16:17.200Z,0.00
2022-11-23T01:17:14.315Z,0.00
2022-11-23T01:18:14.287Z,0.00
2022-11-23T01:19:14.278Z,0.00
2022-11-23T01:20:14.295Z,0.00
2022-11-23T01:21:14.274Z,0.00
2022-11-23T01:22:14.251Z,0.00
2022-11-23T01:23:14.242Z,0.00
2022-11-23T01:24:14.283Z,0.00
2022-11-23T01:25:14.237Z,0.00
2022-11-23T01:26:14.201Z,0.00
2022-11-23T01:27:14.249Z,0.00
2022-11-23T01:28:14.178Z,0.00
2022-11-23T01:29:14.193Z,0.00
2022-11-23T01:30:14.351Z,0.00
2022-11-23T01:31:14.150Z,0.00
2022-11-23T01:32:14.179Z,0.00
2022-11-23T01:33:14.134Z,0.00
2022-11-23T01:34:14.107Z,0.00
2022-11-23T01:35:14.095Z,0.00
2022-11-23T01:36:14.081Z,0.00
2022-11-23T01:37:14.077Z,0.00
2022-11-23T01:38:18.219Z,0.00
2022-11-23T01:39:14.061Z,0.00
2022-11-23T01:40:14.039Z,0.00
2022-11-23T01:41:14.034Z,0.00
2022-11-23T01:42:17.852Z,0.00
2022-11-23T01:43:14.010Z,0.00
2022-11-23T01:44:14.013Z,0.00
2022-11-23T01:45:14.037Z,0.00
2022-11-23T01:46:13.978Z,0.00
2022-11-23T01:47:13.975Z,0.00
2022-11-23T01:48:13.959Z,0.00
2022-11-23T01:49:13.935Z,0.00
2022-11-23T01:50:13.929Z,0.00
2022-11-23T01:51:13.914Z,0.00
2022-11-23T01:52:13.911Z,0.00
2022-11-23T01:53:13.882Z,0.00
2022-11-23T01:54:13.890Z,0.00
2022-11-23T01:55:13.928Z,0.00
2022-11-23T01:56:13.867Z,0.00
2022-11-23T01:57:13.861Z,0.00
2022-11-23T01:58:13.855Z,0.00
2022-11-23T01:59:13.828Z,0.00
2022-11-23T02:00:13.816Z,0.00
2022-11-23T02:01:13.901Z,0.00
2022-11-23T02:02:13.814Z,0.00
2022-11-23T02:03:13.783Z,0.00
2022-11-23T02:04:13.787Z,0.00
2022-11-23T02:05:13.762Z,0.00
2022-11-23T02:06:13.772Z,0.00
2022-11-23T02:07:13.787Z,0.00
2022-11-23T02:08:13.762Z,0.00
2022-11-23T02:09:13.720Z,0.00
2022-11-23T02:10:13.722Z,0.00
2022-11-23T02:11:13.692Z,0.00
2022-11-23T02:12:13.706Z,0.00
2022-11-23T02:13:13.655Z,0.00
2022-11-23T02:14:14.050Z,0.00
2022-11-23T02:15:13.657Z,0.00
2022-11-23T02:16:13.635Z,0.00
2022-11-23T02:17:13.628Z,0.00
2022-11-23T02:18:13.601Z,0.00
2022-11-23T02:19:13.610Z,0.00
2022-11-23T02:20:13.630Z,0.00
2022-11-23T02:21:13.591Z,0.00
2022-11-23T02:22:13.557Z,0.00
2022-11-23T02:23:13.583Z,0.00
2022-11-23T02:24:13.543Z,0.00
2022-11-23T02:25:13.555Z,0.00
2022-11-23T02:26:13.556Z,0.00
2022-11-23T02:27:13.548Z,0.00
2022-11-23T02:28:13.506Z,0.00
2022-11-23T02:29:13.508Z,0.00
2022-11-23T02:30:13.468Z,0.00
2022-11-23T02:31:13.474Z,0.00
2022-11-23T02:32:13.450Z,0.00
2022-11-23T02:33:13.448Z,0.00
2022-11-23T02:34:13.426Z,0.00
2022-11-23T02:35:13.429Z,0.00
2022-11-23T02:36:13.443Z,0.00
2022-11-23T02:37:13.412Z,0.00
2022-11-23T02:38:13.411Z,0.00
2022-11-23T02:39:13.381Z,0.00
2022-11-23T02:40:13.355Z,0.00
2022-11-23T02:41:13.359Z,0.00
2022-11-23T02:42:13.344Z,0.00
2022-11-23T02:43:13.330Z,0.00
2022-11-23T02:44:13.315Z,0.00
2022-11-23T02:45:13.306Z,0.00
2022-11-23T02:46:13.330Z,0.00
2022-11-23T02:47:13.335Z,0.00
2022-11-23T02:48:13.300Z,0.00
2022-11-23T02:49:13.263Z,0.00
2022-11-23T02:50:13.249Z,0.00
2022-11-23T02:51:13.258Z,0.00
2022-11-23T02:52:13.246Z,0.00
2022-11-23T02:53:13.216Z,0.00
2022-11-23T02:54:14.206Z,0.00
2022-11-23T02:55:13.221Z,0.00
2022-11-23T02:56:13.697Z,0.00
2022-11-23T02:57:13.229Z,0.00
2022-11-23T02:58:13.157Z,0.00
2022-11-23T02:59:13.150Z,0.00
2022-11-23T03:00:13.151Z,0.00
2022-11-23T03:01:13.190Z,0.00
2022-11-23T03:02:13.130Z,0.00
2022-11-23T03:03:13.104Z,0.00
2022-11-23T03:04:13.102Z,0.00
2022-11-23T03:05:19.598Z,0.00
2022-11-23T03:06:13.067Z,0.00
2022-11-23T03:07:13.109Z,0.00
2022-11-23T03:08:13.057Z,0.00
2022-11-23T03:09:13.045Z,0.00
2022-11-23T03:10:13.027Z,0.00
2022-11-23T03:11:13.018Z,0.00
2022-11-23T03:12:13.034Z,0.00
2022-11-23T03:13:13.001Z,0.00
2022-11-23T03:14:12.996Z,0.00
2022-11-23T03:15:12.970Z,0.00
2022-11-23T03:16:12.962Z,0.00
2022-11-23T03:17:12.944Z,0.00
2022-11-23T03:18:12.943Z,0.00
2022-11-23T03:19:12.919Z,0.00
2022-11-23T03:20:12.927Z,0.00
2022-11-23T03:21:12.893Z,0.00
2022-11-23T03:22:13.112Z,0.00
2022-11-23T03:23:12.877Z,0.00
2022-11-23T03:24:12.882Z,0.00
2022-11-23T03:25:12.863Z,0.00
2022-11-23T03:26:13.474Z,0.00
2022-11-23T03:27:12.820Z,0.00
2022-11-23T03:28:12.873Z,0.00
2022-11-23T03:29:12.846Z,0.00
2022-11-23T03:30:12.835Z,0.00
2022-11-23T03:31:12.801Z,0.00
2022-11-23T03:32:12.785Z,0.00
2022-11-23T03:33:12.755Z,0.00
2022-11-23T03:34:12.773Z,0.00
2022-11-23T03:35:19.265Z,0.00
2022-11-23T03:36:12.773Z,0.00
2022-11-23T03:37:12.721Z,0.00
2022-11-23T03:38:12.721Z,0.00
2022-11-23T03:39:12.706Z,0.00
2022-11-23T03:40:12.696Z,0.00
2022-11-23T03:41:12.666Z,0.00
2022-11-23T03:42:12.662Z,0.00
2022-11-23T03:43:12.681Z,0.00
2022-11-23T03:44:12.843Z,0.00
2022-11-23T03:45:12.638Z,0.00
2022-11-23T03:46:12.649Z,0.00
2022-11-23T03:47:12.626Z,0.00
2022-11-23T03:48:12.620Z,0.00
2022-11-23T03:49:12.627Z,0.00
2022-11-23T03:50:12.580Z,0.00
2022-11-23T03:51:12.560Z,0.00
2022-11-23T03:52:12.563Z,0.00
2022-11-23T03:53:12.540Z,0.00
2022-11-23T03:54:12.530Z,0.00
2022-11-23T03:55:12.520Z,0.00
2022-11-23T03:56:12.524Z,0.00
2022-11-23T03:57:12.495Z,0.00
2022-11-23T03:58:12.501Z,0.00
2022-11-23T03:59:12.532Z,0.00
2022-11-23T04:00:12.469Z,0.00
2022-11-23T04:01:12.500Z,0.00
2022-11-23T04:02:12.436Z,0.00
2022-11-23T04:03:12.421Z,0.00
2022-11-23T04:04:12.665Z,0.00
2022-11-23T04:05:12.403Z,0.00
2022-11-23T04:06:12.402Z,0.00
2022-11-23T04:07:12.461Z,0.00
2022-11-23T04:08:12.383Z,0.00
2022-11-23T04:09:12.380Z,0.00
2022-11-23T04:10:12.349Z,0.00
2022-11-23T04:11:12.350Z,0.00
2022-11-23T04:12:12.326Z,0.00
2022-11-23T04:13:12.319Z,0.00
2022-11-23T04:14:12.318Z,0.00
2022-11-23T04:15:12.307Z,0.00
2022-11-23T04:16:12.366Z,0.00
2022-11-23T04:17:12.282Z,0.00
2022-11-23T04:18:12.249Z,0.00
2022-11-23T04:19:12.281Z,0.00
2022-11-23T04:20:12.233Z,0.00
2022-11-23T04:21:12.225Z,0.00
2022-11-23T04:22:12.210Z,0.00
2022-11-23T04:23:13.653Z,0.00
2022-11-23T04:24:12.201Z,0.00
2022-11-23T04:25:18.764Z,0.00
2022-11-23T04:26:12.160Z,0.00
2022-11-23T04:27:12.167Z,0.00
2022-11-23T04:28:12.148Z,0.00
2022-11-23T04:29:12.150Z,0.00
2022-11-23T04:30:12.175Z,0.00
2022-11-23T04:31:12.111Z,0.00
2022-11-23T04:32:12.105Z,0.00
2022-11-23T04:33:12.100Z,0.00
2022-11-23T04:34:12.087Z,0.00
2022-11-23T04:35:12.056Z,0.00
2022-11-23T04:36:12.066Z,0.00
2022-11-23T04:37:13.591Z,0.00
2022-11-23T04:38:12.050Z,0.00
2022-11-23T04:39:12.019Z,0.00
2022-11-23T04:40:12.056Z,0.00
2022-11-23T04:41:12.001Z,0.00
2022-11-23T04:42:11.997Z,0.00
2022-11-23T04:43:11.965Z,0.00
2022-11-23T04:44:11.970Z,0.00
2022-11-23T04:45:11.972Z,0.00
2022-11-23T04:46:11.940Z,0.00
2022-11-23T04:47:11.950Z,0.00
2022-11-23T04:48:11.923Z,0.00
2022-11-23T04:49:11.898Z,0.00
2022-11-23T04:50:12.197Z,0.00
2022-11-23T04:51:11.886Z,0.00
2022-11-23T04:52:11.875Z,0.00
2022-11-23T04:53:11.868Z,0.00
2022-11-23T04:54:11.875Z,0.00
2022-11-23T04:55:18.947Z,0.00
2022-11-23T04:56:11.828Z,0.00
2022-11-23T04:57:11.837Z,0.00
2022-11-23T04:58:11.825Z,0.00
2022-11-23T04:59:11.797Z,0.00
2022-11-23T05:00:11.784Z,0.00
2022-11-23T05:01:11.856Z,0.00
2022-11-23T05:02:11.763Z,0.00
2022-11-23T05:03:11.759Z,0.00
2022-11-23T05:04:16.400Z,0.00
2022-11-23T05:05:11.740Z,0.00
2022-11-23T05:06:11.742Z,0.00
2022-11-23T05:07:11.746Z,0.00
2022-11-23T05:08:11.693Z,0.00
2022-11-23T05:09:11.686Z,0.00
2022-11-23T05:10:11.668Z,0.00
2022-11-23T05:11:11.661Z,0.00
2022-11-23T05:12:11.672Z,0.00
2022-11-23T05:13:11.628Z,0.00
2022-11-23T05:14:11.636Z,0.00
2022-11-23T05:15:11.654Z,0.00
2022-11-23T05:16:11.601Z,0.00
2022-11-23T05:17:11.587Z,0.00
2022-11-23T05:18:11.595Z,0.00
2022-11-23T05:19:11.572Z,0.00
2022-11-23T05:20:11.571Z,0.00
2022-11-23T05:21:11.547Z,0.00
2022-11-23T05:22:11.532Z,0.00
2022-11-23T05:23:11.524Z,0.00
2022-11-23T05:24:11.521Z,0.00
2022-11-23T05:25:11.504Z,0.00
2022-11-23T05:26:11.503Z,0.00
2022-11-23T05:27:11.486Z,0.00
2022-11-23T05:28:38.344Z,0.00
2022-11-23T05:29:11.676Z,0.00
2022-11-23T05:30:11.434Z,0.00
2022-11-23T05:31:11.461Z,0.00
2022-11-23T05:32:11.505Z,0.00
2022-11-23T05:33:11.417Z,0.00
2022-11-23T05:34:11.404Z,0.00
2022-11-23T05:35:11.618Z,0.00
2022-11-23T05:36:11.383Z,0.00
2022-11-23T05:37:11.370Z,0.00
2022-11-23T05:38:11.874Z,0.00
2022-11-23T05:39:11.882Z,0.00
2022-11-23T05:40:11.538Z,0.00
2022-11-23T05:41:11.336Z,0.00
2022-11-23T05:42:11.524Z,0.00
2022-11-23T05:43:11.890Z,0.00
2022-11-23T05:44:11.283Z,0.00
2022-11-23T05:45:11.971Z,0.00
2022-11-23T05:46:11.255Z,0.00
2022-11-23T05:47:11.261Z,0.00
2022-11-23T05:48:11.235Z,0.00
2022-11-23T05:49:11.250Z,0.00
2022-11-23T05:50:11.270Z,0.00
2022-11-23T05:51:11.207Z,0.00
2022-11-23T05:52:11.192Z,0.00
2022-11-23T05:53:11.199Z,0.00
2022-11-23T05:54:11.164Z,0.00
2022-11-23T05:55:11.175Z,0.00
2022-11-23T05:56:11.169Z,0.00
2022-11-23T05:57:11.142Z,0.00
2022-11-23T05:58:11.358Z,0.00
2022-11-23T05:59:11.116Z,0.00
2022-11-23T06:00:11.118Z,0.00
2022-11-23T06:01:11.103Z,0.00
2022-11-23T06:02:11.084Z,0.00
2022-11-23T06:03:11.152Z,0.00
2022-11-23T06:04:11.129Z,0.00
2022-11-23T06:05:11.053Z,0.00
2022-11-23T06:06:11.055Z,0.00
2022-11-23T06:07:11.098Z,0.00
2022-11-23T06:08:11.033Z,0.00
2022-11-23T06:09:11.008Z,0.00
2022-11-23T06:10:11.001Z,0.00
2022-11-23T06:11:10.980Z,0.00
2022-11-23T06:12:10.978Z,0.00
2022-11-23T06:13:10.968Z,0.00
2022-11-23T06:14:14.198Z,0.00
2022-11-23T06:15:10.930Z,0.00
2022-11-23T06:16:10.950Z,0.00
2022-11-23T06:17:10.918Z,0.00
2022-11-23T06:18:10.918Z,0.00
2022-11-23T06:19:10.885Z,0.00
2022-11-23T06:20:10.888Z,0.00
2022-11-23T06:21:11.125Z,0.00
2022-11-23T06:22:10.875Z,0.00
2022-11-23T06:23:10.856Z,0.00
2022-11-23T06:24:10.859Z,0.00
2022-11-23T06:25:10.836Z,0.00
2022-11-23T06:26:10.811Z,0.00
2022-11-23T06:27:15.261Z,0.00
2022-11-23T06:28:10.800Z,4.00
2022-11-23T06:29:10.803Z,4.00
2022-11-23T06:30:10.757Z,4.00
2022-11-23T06:31:10.796Z,0.00
2022-11-23T06:32:10.736Z,4.00
2022-11-23T06:33:10.755Z,8.00
2022-11-23T06:34:10.779Z,4.00
2022-11-23T06:35:17.541Z,4.00
2022-11-23T06:36:10.696Z,8.00
2022-11-23T06:37:10.712Z,8.00
2022-11-23T06:38:10.683Z,8.00
2022-11-23T06:39:10.668Z,12.00
2022-11-23T06:40:10.659Z,12.00
2022-11-23T06:41:10.646Z,12.00
2022-11-23T06:42:37.221Z,16.00
2022-11-23T06:43:10.654Z,16.00
2022-11-23T06:44:10.600Z,20.00
2022-11-23T06:45:10.602Z,28.00
2022-11-23T06:46:10.605Z,32.00
2022-11-23T06:47:16.477Z,36.00
2022-11-23T06:48:10.583Z,40.00
2022-11-23T06:49:10.600Z,44.00
2022-11-23T06:50:10.548Z,48.00
2022-11-23T06:51:10.538Z,60.00
2022-11-23T06:52:10.538Z,68.00
2022-11-23T06:53:10.533Z,76.00
2022-11-23T06:54:10.491Z,84.00
2022-11-23T06:55:10.489Z,92.00
2022-11-23T06:56:10.495Z,100.00
2022-11-23T06:57:10.464Z,112.00
2022-11-23T06:58:10.464Z,128.00
2022-11-23T06:59:10.466Z,132.00
2022-11-23T07:00:10.654Z,140.00
2022-11-23T07:01:10.501Z,148.00
2022-11-23T07:02:12.253Z,164.00
2022-11-23T07:03:10.435Z,180.00
2022-11-23T07:04:12.424Z,188.00
2022-11-23T07:05:12.973Z,200.00
2022-11-23T07:06:10.950Z,212.00
2022-11-23T07:07:10.678Z,228.00
2022-11-23T07:08:10.362Z,244.00
2022-11-23T07:09:11.285Z,268.00
2022-11-23T07:10:10.338Z,304.00
2022-11-23T07:11:10.325Z,344.00
2022-11-23T07:12:10.755Z,376.00
2022-11-23T07:13:10.284Z,404.00
2022-11-23T07:14:10.279Z,444.00
2022-11-23T07:15:11.136Z,480.00
2022-11-23T07:16:10.277Z,520.00
2022-11-23T07:17:13.757Z,552.00
2022-11-23T07:18:10.276Z,580.00
2022-11-23T07:19:10.939Z,612.00
2022-11-23T07:20:10.422Z,640.00
2022-11-23T07:21:10.219Z,664.00
2022-11-23T07:22:13.208Z,712.00
2022-11-23T07:23:10.187Z,740.00
2022-11-23T07:24:11.923Z,776.00
2022-11-23T07:25:17.596Z,824.00
2022-11-23T07:26:11.193Z,872.00
2022-11-23T07:27:10.140Z,896.00
2022-11-23T07:28:20.358Z,928.00
2022-11-23T07:29:11.142Z,1000.00
2022-11-23T07:30:10.115Z,1096.00
2022-11-23T07:31:10.145Z,1228.00
2022-11-23T07:32:10.089Z,1472.00
2022-11-23T07:33:11.291Z,1664.00
2022-11-23T07:34:10.335Z,1688.00
2022-11-23T07:35:10.050Z,1628.00
2022-11-23T07:36:11.167Z,1572.00
2022-11-23T07:37:10.241Z,1516.00
2022-11-23T07:38:10.030Z,1512.00
2022-11-23T07:39:10.003Z,1532.00
2022-11-23T07:40:13.535Z,1564.00
2022-11-23T07:41:32.087Z,1600.00
2022-11-23T07:42:31.599Z,1612.00
2022-11-23T07:43:10.085Z,1632.00
2022-11-23T07:44:09.955Z,1672.00
2022-11-23T07:45:11.900Z,1716.00
2022-11-23T07:46:11.539Z,1772.00
2022-11-23T07:47:09.927Z,1800.00
2022-11-23T07:48:09.990Z,1852.00
2022-11-23T07:49:09.957Z,1924.00
2022-11-23T07:50:10.753Z,1984.00
2022-11-23T07:51:10.079Z,2056.00
2022-11-23T07:52:10.492Z,2172.00
2022-11-23T07:53:20.649Z,2232.00
2022-11-23T07:54:09.995Z,2332.00
2022-11-23T07:55:09.862Z,2372.00
2022-11-23T07:56:10.434Z,2400.00
2022-11-23T07:57:20.242Z,2412.00
2022-11-23T07:58:10.435Z,2380.00
2022-11-23T07:59:10.447Z,2372.00
2022-11-23T08:00:10.456Z,2352.00
2022-11-23T08:01:20.033Z,2340.00
2022-11-23T08:02:09.789Z,2340.00
2022-11-23T08:03:27.386Z,2400.00
2022-11-23T08:04:11.043Z,2284.00
2022-11-23T08:05:14.331Z,2184.00
2022-11-23T08:06:11.158Z,2008.00
2022-11-23T08:07:09.866Z,2068.00
2022-11-23T08:08:09.722Z,1956.00
2022-11-23T08:09:09.680Z,2044.00
2022-11-23T08:10:10.482Z,2092.00
2022-11-23T08:11:09.676Z,2292.00
2022-11-23T08:12:10.536Z,2636.00
2022-11-23T08:13:14.169Z,2588.00
2022-11-23T08:14:09.857Z,2480.00
2022-11-23T08:15:09.819Z,2368.00
2022-11-23T08:16:09.605Z,2204.00
2022-11-23T08:17:10.457Z,2036.00
2022-11-23T08:19:30.728Z,1968.00
2022-11-23T08:19:36.622Z,2076.00
2022-11-23T08:20:35.556Z,2068.00
2022-11-23T08:21:35.551Z,2196.00
2022-11-23T08:22:35.737Z,2336.00
2022-11-23T08:23:35.487Z,2360.00
2022-11-23T08:24:36.453Z,2396.00
2022-11-23T08:25:36.478Z,2384.00
2022-11-23T08:26:35.722Z,2500.00
2022-11-23T08:27:37.691Z,2660.00
2022-11-23T08:28:35.681Z,2820.00
2022-11-23T08:29:35.474Z,2880.00
2022-11-23T08:30:36.601Z,2912.00
2022-11-23T08:31:35.425Z,2852.00
2022-11-23T08:32:41.048Z,2828.00
2022-11-23T08:33:35.973Z,2872.00
2022-11-23T08:34:35.470Z,2952.00
2022-11-23T08:35:37.165Z,3260.00
2022-11-23T08:36:40.394Z,3412.00
2022-11-23T08:37:37.332Z,3364.00
2022-11-23T08:38:35.648Z,3500.00
2022-11-23T08:39:35.325Z,3328.00
2022-11-23T08:40:35.314Z,3252.00
2022-11-23T08:41:35.537Z,3304.00
2022-11-23T08:42:35.351Z,3324.00
2022-11-23T08:43:35.302Z,3396.00
2022-11-23T08:44:35.616Z,3424.00
2022-11-23T08:45:35.268Z,3344.00
2022-11-23T08:46:35.301Z,3512.00
2022-11-23T08:47:35.232Z,3444.00
2022-11-23T08:48:35.241Z,3292.00
2022-11-23T08:49:35.247Z,3488.00
2022-11-23T08:50:35.229Z,3868.00
2022-11-23T08:51:35.217Z,4548.00
2022-11-23T08:52:35.254Z,4784.00
2022-11-23T08:53:35.153Z,4760.00
2022-11-23T08:54:35.307Z,5552.00
2022-11-23T08:55:35.181Z,5776.00
2022-11-23T08:56:35.697Z,5580.00
2022-11-23T08:57:35.139Z,4532.00
2022-11-23T08:58:35.991Z,4428.00
2022-11-23T08:59:39.353Z,5744.00
2022-11-23T09:00:35.110Z,5308.00
2022-11-23T09:01:35.996Z,4552.00
2022-11-23T09:02:35.305Z,4336.00
2022-11-23T09:03:35.289Z,4348.00
2022-11-23T09:04:35.477Z,4536.00
2022-11-23T09:05:35.260Z,4684.00
2022-11-23T09:06:35.049Z,4620.00
2022-11-23T09:07:35.642Z,4852.00
2022-11-23T09:08:35.271Z,5140.00
2022-11-23T09:09:35.027Z,4408.00
2022-11-23T09:10:35.967Z,4280.00
2022-11-23T09:11:34.972Z,5312.00
2022-11-23T09:12:35.156Z,5520.00
2022-11-23T09:13:34.968Z,5680.00
2022-11-23T09:14:35.515Z,5912.00
2022-11-23T09:15:34.935Z,4540.00
2022-11-23T09:16:34.928Z,6380.00
2022-11-23T09:17:34.920Z,6096.00
2022-11-23T09:18:36.120Z,8356.00
2022-11-23T09:19:34.869Z,8324.00
2022-11-23T09:20:34.909Z,6256.00
2022-11-23T09:21:43.061Z,8920.00
2022-11-23T09:22:34.845Z,7140.00
2022-11-23T09:23:34.850Z,7244.00
2022-11-23T09:24:36.632Z,7588.00
2022-11-23T09:25:34.878Z,6720.00
2022-11-23T09:26:35.942Z,7640.00
2022-11-23T09:27:35.087Z,7332.00
2022-11-23T09:28:38.095Z,6460.00
2022-11-23T09:29:35.204Z,7384.00
2022-11-23T09:30:36.746Z,6384.00
2022-11-23T09:31:36.135Z,6468.00
2022-11-23T09:32:34.927Z,6144.00
2022-11-23T09:33:34.942Z,5828.00
2022-11-23T09:34:45.697Z,5948.00
2022-11-23T09:35:40.690Z,6024.00
2022-11-23T09:36:35.075Z,6316.00
2022-11-23T09:37:35.495Z,6848.00
2022-11-23T09:39:01.834Z,7240.00
2022-11-23T09:39:36.116Z,6628.00
2022-11-23T09:40:34.886Z,7496.00
2022-11-23T09:41:35.152Z,7820.00
2022-11-23T09:42:38.044Z,8160.00
2022-11-23T09:43:34.602Z,9752.00
2022-11-23T09:44:34.932Z,9256.00
2022-11-23T09:45:35.967Z,9152.00
2022-11-23T09:46:37.204Z,9444.00
2022-11-23T09:47:34.597Z,13376.00
2022-11-23T09:48:34.562Z,9576.00
2022-11-23T09:49:35.176Z,8608.00
2022-11-23T09:50:43.967Z,7944.00
2022-11-23T09:51:35.954Z,8084.00
2022-11-23T09:52:41.366Z,8468.00
2022-11-23T09:53:55.551Z,7744.00
2022-11-23T09:54:38.330Z,7008.00
2022-11-23T09:55:34.475Z,6388.00
2022-11-23T09:56:34.736Z,6304.00
2022-11-23T09:57:42.248Z,5964.00
2022-11-23T09:58:35.071Z,5836.00
2022-11-23T09:59:35.048Z,5984.00
2022-11-23T10:00:35.771Z,6000.00
2022-11-23T10:01:36.586Z,6292.00
2022-11-23T10:02:38.640Z,5436.00
2022-11-23T10:03:35.499Z,5644.00
2022-11-23T10:04:34.852Z,5668.00
2022-11-23T10:05:56.353Z,5916.00
2022-11-23T10:06:34.365Z,5612.00
2022-11-23T10:07:35.286Z,5940.00
2022-11-23T10:08:35.036Z,5448.00
2022-11-23T10:09:34.877Z,5804.00
2022-11-23T10:10:35.740Z,6212.00
2022-11-23T10:11:34.295Z,6016.00
2022-11-23T10:12:39.797Z,6312.00
2022-11-23T10:13:37.106Z,5656.00
2022-11-23T10:14:41.391Z,6068.00
2022-11-23T10:15:37.307Z,5612.00
2022-11-23T10:16:42.683Z,5696.00
2022-11-23T10:17:34.646Z,6080.00
2022-11-23T10:18:34.211Z,6056.00
2022-11-23T10:19:37.044Z,6120.00
2022-11-23T10:20:36.082Z,7344.00
2022-11-23T10:21:35.976Z,7668.00
2022-11-23T10:22:35.009Z,7324.00
2022-11-23T10:23:34.184Z,7032.00
2022-11-23T10:24:34.796Z,6792.00
2022-11-23T10:25:39.027Z,7336.00
2022-11-23T10:26:34.746Z,8104.00
2022-11-23T10:27:34.691Z,8560.00
2022-11-23T10:28:35.238Z,8380.00
2022-11-23T10:29:35.471Z,8112.00
2022-11-23T10:30:38.120Z,8060.00
2022-11-23T10:31:34.102Z,7948.00
2022-11-23T10:32:38.000Z,7568.00
2022-11-23T10:33:35.989Z,7580.00
2022-11-23T10:34:34.687Z,8372.00
2022-11-23T10:35:35.347Z,8076.00
2022-11-23T10:36:35.014Z,7708.00
2022-11-23T10:37:35.001Z,7388.00
2022-11-23T10:38:34.006Z,7492.00
2022-11-23T10:39:35.433Z,7444.00
2022-11-23T10:40:34.883Z,7964.00
2022-11-23T10:41:35.402Z,8368.00
2022-11-23T10:42:34.017Z,9264.00
2022-11-23T10:43:37.673Z,9444.00
2022-11-23T10:44:36.284Z,8672.00
2022-11-23T10:45:44.870Z,17312.00
2022-11-23T10:46:36.151Z,15264.00
2022-11-23T10:47:34.044Z,16128.00
2022-11-23T10:48:33.899Z,20704.00
2022-11-23T10:49:34.505Z,20960.00
2022-11-23T10:50:34.154Z,11828.00
2022-11-23T10:51:35.205Z,13688.00
2022-11-23T10:52:33.836Z,9532.00
2022-11-23T10:53:34.341Z,9388.00
2022-11-23T10:54:34.333Z,18400.00
2022-11-23T10:56:24.344Z,15424.00
2022-11-23T10:56:35.551Z,20064.00
2022-11-23T10:57:34.187Z,18432.00
2022-11-23T10:58:33.985Z,12616.00
2022-11-23T10:59:34.115Z,14600.00
2022-11-23T11:00:34.827Z,17408.00
2022-11-23T11:01:48.771Z,17696.00
2022-11-23T11:02:37.545Z,16224.00
2022-11-23T11:03:54.393Z,11808.00
2022-11-23T11:04:39.805Z,16352.00
2022-11-23T11:06:11.722Z,18944.00
2022-11-23T11:06:35.730Z,20800.00
2022-11-23T11:07:49.823Z,20672.00
2022-11-23T11:08:33.683Z,20032.00
2022-11-23T11:09:49.418Z,18656.00
2022-11-23T11:10:36.044Z,17120.00
2022-11-23T11:11:39.826Z,16256.00
2022-11-23T11:13:06.822Z,14912.00
2022-11-23T11:13:35.054Z,13972.00
2022-11-23T11:14:42.822Z,14036.00
2022-11-23T11:15:42.452Z,14464.00
2022-11-23T11:16:46.461Z,14368.00
2022-11-23T11:17:35.560Z,15744.00
2022-11-23T11:18:34.535Z,17504.00
2022-11-23T11:19:34.859Z,18880.00
2022-11-23T11:20:35.408Z,18720.00
2022-11-23T11:21:55.486Z,18112.00
2022-11-23T11:22:37.193Z,12712.00
2022-11-23T11:23:34.050Z,16096.00
2022-11-23T11:24:33.809Z,23424.00
2022-11-23T11:25:42.962Z,20064.00
2022-11-23T11:26:37.516Z,23264.00
2022-11-23T11:27:33.527Z,22048.00
2022-11-23T11:28:35.969Z,19552.00
2022-11-23T11:29:38.947Z,20544.00
2022-11-23T11:30:33.896Z,22272.00
2022-11-23T11:31:33.785Z,17568.00
2022-11-23T11:32:34.356Z,18912.00
2022-11-23T11:33:36.587Z,10060.00
2022-11-23T11:34:33.741Z,13916.00
2022-11-23T11:35:33.581Z,7964.00
2022-11-23T11:36:33.538Z,12800.00
2022-11-23T11:37:33.317Z,19680.00
2022-11-23T11:38:33.530Z,17376.00
2022-11-23T11:39:34.247Z,13260.00
2022-11-23T11:40:33.816Z,19200.00
2022-11-23T11:41:33.920Z,18720.00
2022-11-23T11:42:34.730Z,13328.00
2022-11-23T11:43:39.662Z,15872.00
2022-11-23T11:44:34.072Z,13580.00
2022-11-23T11:45:33.436Z,11424.00
2022-11-23T11:46:33.257Z,9852.00
2022-11-23T11:47:33.401Z,9764.00
2022-11-23T11:48:33.218Z,9352.00
2022-11-23T11:49:33.823Z,10656.00
2022-11-23T11:50:33.219Z,13116.00
2022-11-23T11:51:34.342Z,10492.00
2022-11-23T11:52:33.619Z,9668.00
2022-11-23T11:53:34.577Z,8076.00
2022-11-23T11:54:33.626Z,8144.00
2022-11-23T11:55:35.066Z,9280.00
2022-11-23T11:56:33.114Z,9472.00
2022-11-23T11:57:36.384Z,10684.00
2022-11-23T11:58:33.149Z,10428.00
2022-11-23T11:59:36.835Z,8960.00
2022-11-23T12:00:33.671Z,9376.00
2022-11-23T12:01:34.174Z,8832.00
2022-11-23T12:02:33.365Z,8600.00
2022-11-23T12:03:33.232Z,8624.00
2022-11-23T12:04:34.751Z,8368.00
2022-11-23T12:05:33.021Z,9456.00
2022-11-23T12:06:33.204Z,8844.00
2022-11-23T12:07:33.669Z,10072.00
2022-11-23T12:08:32.979Z,11212.00
2022-11-23T12:09:33.861Z,13372.00
2022-11-23T12:10:37.289Z,11988.00
2022-11-23T12:11:32.970Z,10228.00
2022-11-23T12:12:34.133Z,9928.00
2022-11-23T12:13:32.982Z,10516.00
2022-11-23T12:14:34.774Z,10760.00
2022-11-23T12:15:48.810Z,10848.00
2022-11-23T12:16:32.912Z,11280.00
2022-11-23T12:17:33.667Z,10628.00
2022-11-23T12:18:32.860Z,9340.00
2022-11-23T12:19:33.752Z,9664.00
2022-11-23T12:20:34.048Z,10056.00
2022-11-23T12:21:32.974Z,9204.00
2022-11-23T12:22:32.812Z,8612.00
2022-11-23T12:23:32.853Z,8852.00
2022-11-23T12:24:32.802Z,9832.00
2022-11-23T12:25:32.814Z,9964.00
2022-11-23T12:26:33.618Z,10636.00
2022-11-23T12:27:33.927Z,10108.00
2022-11-23T12:28:32.763Z,16928.00
2022-11-23T12:29:33.313Z,15200.00
2022-11-23T12:30:32.756Z,14208.00
2022-11-23T12:31:33.752Z,17088.00
2022-11-23T12:32:32.770Z,10128.00
2022-11-23T12:33:32.695Z,15872.00
2022-11-23T12:34:33.325Z,20608.00
2022-11-23T12:35:39.244Z,21664.00
2022-11-23T12:36:32.660Z,22112.00
2022-11-23T12:37:32.642Z,20128.00
2022-11-23T12:38:32.628Z,15776.00
2022-11-23T12:39:32.650Z,14176.00
2022-11-23T12:40:32.644Z,13792.00
2022-11-23T12:41:32.612Z,13728.00